Time;durP1;ratioP1;P1;durP2;ratioP2;P2;SDS_P1;SDS_P2;PMS_P1;PMS_P2;Temp;Humidity;BMP_temperature;BMP_pressure;BME280_temperature;BME280_humidity;BME280_pressure;Samples;Min_cycle;Max_cycle;Signal;HPM_P1;HPM_P2
2022/06/27 00:01:14;;;;;;;4.93;4.53;;;;;;;19.11;70.49;95159.25;5097304;28;20294;-73
2022/06/27 00:03:41;;;;;;;5.82;5.32;;;;;;;19.07;71.07;95158.47;5096372;28;20172;-73
2022/06/27 00:06:11;;;;;;;5.55;4.65;;;;;;;19.06;71.77;95154.06;5097223;28;20189;-73
2022/06/27 00:08:38;;;;;;;6.78;5.82;;;;;;;19.08;71.39;95151.69;5097441;28;20230;-73
2022/06/27 00:11:05;;;;;;;5.93;5.32;;;;;;;19.10;71.47;95152.06;5097060;28;20181;-73
2022/06/27 00:13:31;;;;;;;6.30;5.38;;;;;;;19.06;71.03;95148.47;5096150;28;20193;-73
2022/06/27 00:15:58;;;;;;;5.95;5.40;;;;;;;19.00;70.99;95145.31;5097152;28;20185;-73
2022/06/27 00:18:25;;;;;;;7.05;6.35;;;;;;;19.00;71.23;95150.91;5097044;28;20189;-73
2022/06/27 00:20:53;;;;;;;8.27;7.20;;;;;;;18.96;71.60;95148.13;5096076;28;20196;-73
2022/06/27 00:23:22;;;;;;;6.93;6.38;;;;;;;18.96;71.40;95158.53;5096936;28;20196;-72
2022/06/27 00:25:49;;;;;;;7.95;7.00;;;;;;;18.94;71.26;95158.13;5096188;28;20192;-72
2022/06/27 00:28:16;;;;;;;7.65;6.60;;;;;;;18.92;71.24;95157.75;5096749;28;20228;-72
2022/06/27 00:30:43;;;;;;;9.35;7.65;;;;;;;18.86;71.68;95153.75;5096563;28;20180;-72
2022/06/27 00:33:10;;;;;;;8.32;7.25;;;;;;;18.85;72.00;95160.56;5096315;28;20200;-72
2022/06/27 00:35:37;;;;;;;7.55;6.85;;;;;;;18.87;71.96;95163.72;5095740;28;20192;-72
2022/06/27 00:38:04;;;;;;;7.20;6.45;;;;;;;18.86;71.75;95157.34;5096818;28;20195;-72
2022/06/27 00:40:32;;;;;;;7.57;6.85;;;;;;;18.84;71.67;95151.34;5096640;28;20216;-72
2022/06/27 00:42:58;;;;;;;7.70;6.63;;;;;;;18.82;71.89;95150.19;5096233;28;20185;-72
2022/06/27 00:45:25;;;;;;;8.13;6.25;;;;;;;18.80;72.08;95155.38;5096129;28;20209;-72
2022/06/27 00:47:52;;;;;;;7.47;6.78;;;;;;;18.82;72.48;95153.78;5095087;28;20203;-72
2022/06/27 00:50:19;;;;;;;7.72;6.82;;;;;;;18.83;72.62;95143.38;5096058;28;20504;-72
2022/06/27 00:52:46;;;;;;;6.63;6.03;;;;;;;18.81;72.88;95152.19;5096195;28;20222;-73
2022/06/27 00:55:13;;;;;;;7.15;6.55;;;;;;;18.83;72.95;95148.97;5096123;28;20199;-72
2022/06/27 00:57:42;;;;;;;7.55;6.78;;;;;;;18.82;72.54;95147.41;5095094;28;20205;-71
2022/06/27 01:00:10;;;;;;;7.55;6.95;;;;;;;18.79;72.35;95139.81;5096005;28;20200;-72
2022/06/27 01:02:37;;;;;;;7.78;7.00;;;;;;;18.76;72.58;95135.81;5095336;28;20200;-69
2022/06/27 01:05:04;;;;;;;7.85;6.50;;;;;;;18.73;72.71;95137.41;5095222;28;20253;-72
2022/06/27 01:07:31;;;;;;;9.95;7.30;;;;;;;18.74;72.91;95138.25;5095091;28;20196;-72
2022/06/27 01:09:58;;;;;;;10.90;9.05;;;;;;;18.71;72.67;95134.25;5095577;28;20192;-72
2022/06/27 01:12:25;;;;;;;12.05;10.45;;;;;;;18.66;72.18;95134.63;5095866;28;20219;-72
2022/06/27 01:14:54;;;;;;;16.27;12.68;;;;;;;18.63;72.16;95129.88;5095076;28;20189;-72
2022/06/27 01:17:20;;;;;;;17.23;12.80;;;;;;;18.58;72.71;95127.47;5094821;28;20218;-72
2022/06/27 01:19:47;;;;;;;13.70;11.18;;;;;;;18.54;72.50;95129.47;5095941;28;20188;-72
2022/06/27 01:22:15;;;;;;;15.32;11.18;;;;;;;18.55;73.09;95121.88;5095487;28;20180;-71
2022/06/27 01:24:42;;;;;;;11.60;10.40;;;;;;;18.51;73.60;95127.47;5094610;28;20193;-71
2022/06/27 01:27:09;;;;;;;10.93;8.50;;;;;;;18.52;73.70;95121.50;5094286;28;20200;-71
2022/06/27 01:29:37;;;;;;;8.88;7.93;;;;;;;18.52;73.62;95118.72;5095381;28;20597;-71
2022/06/27 01:32:04;;;;;;;13.02;8.95;;;;;;;18.54;72.80;95126.69;5094380;28;20284;-71
2022/06/27 01:34:31;;;;;;;6.55;5.88;;;;;;;18.49;71.90;95133.47;5094722;28;20204;-71
2022/06/27 01:36:58;;;;;;;6.05;5.45;;;;;;;18.40;71.35;95135.09;5094552;28;20188;-71
2022/06/27 01:39:28;;;;;;;6.38;5.47;;;;;;;18.33;71.99;95135.09;5094695;28;20512;-71
2022/06/27 01:41:56;;;;;;;7.25;5.53;;;;;;;18.29;72.13;95130.31;5095210;28;20189;-71
2022/06/27 01:44:25;;;;;;;6.03;5.28;;;;;;;18.27;72.51;95138.31;5094741;28;20280;-71
2022/06/27 01:46:55;;;;;;;5.53;5.03;;;;;;;18.31;72.19;95145.88;5095560;28;20185;-72
2022/06/27 01:49:22;;;;;;;5.20;4.80;;;;;;;18.33;71.84;95140.69;5095442;28;20204;-71
2022/06/27 01:51:50;;;;;;;7.00;5.60;;;;;;;18.33;72.17;95149.06;5095311;28;20197;-71
2022/06/27 01:54:19;;;;;;;6.07;5.28;;;;;;;18.31;72.27;95145.88;5094769;28;20188;-73
2022/06/27 01:56:49;;;;;;;6.38;5.78;;;;;;;18.29;72.57;95152.66;5094642;28;20207;-73
2022/06/27 01:59:18;;;;;;;7.20;6.53;;;;;;;18.31;72.63;95162.66;5095356;28;20185;-72
2022/06/27 02:01:45;;;;;;;9.60;8.70;;;;;;;18.28;72.35;95158.66;5095927;28;20188;-71
2022/06/27 02:04:13;;;;;;;22.83;20.83;;;;;;;18.23;72.68;95162.66;5095614;28;20196;-71
2022/06/27 02:06:42;;;;;;;21.83;19.92;;;;;;;18.21;72.99;95158.66;5095800;28;20184;-71
2022/06/27 02:09:11;;;;;;;21.38;19.23;;;;;;;18.21;73.05;95167.03;5095699;28;20194;-71
2022/06/27 02:11:39;;;;;;;24.98;22.98;;;;;;;18.21;72.89;95169.81;5095139;28;20192;-71
2022/06/27 02:14:07;;;;;;;20.38;18.45;;;;;;;18.19;72.98;95175.00;5094666;28;20209;-71
2022/06/27 02:16:34;;;;;;;14.90;13.50;;;;;;;18.16;73.25;95184.97;5095093;28;20195;-71
2022/06/27 02:19:01;;;;;;;14.07;12.82;;;;;;;18.15;73.44;95177.78;5094493;28;20597;-71
2022/06/27 02:21:29;;;;;;;14.90;12.70;;;;;;;18.19;73.42;95184.19;5093919;28;20605;-71
2022/06/27 02:23:57;;;;;;;13.93;12.63;;;;;;;18.20;73.51;95179.41;5094115;28;20201;-71
2022/06/27 02:26:25;;;;;;;13.45;12.35;;;;;;;18.17;73.76;95174.59;5097053;28;20520;-71
2022/06/27 02:28:53;;;;;;;13.02;11.93;;;;;;;18.16;73.84;95176.59;5098889;28;20232;-72
2022/06/27 02:31:22;;;;;;;12.68;11.57;;;;;;;18.18;74.02;95176.19;5098145;28;20200;-72
2022/06/27 02:33:49;;;;;;;13.13;11.90;;;;;;;18.20;73.59;95182.19;5098238;28;20223;-71
2022/06/27 02:36:18;;;;;;;13.38;12.13;;;;;;;18.15;73.53;95186.16;5098940;28;20223;-71
2022/06/27 02:38:45;;;;;;;14.00;12.85;;;;;;;18.13;73.29;95185.78;5098666;28;20631;-71
2022/06/27 02:41:15;;;;;;;10.52;9.45;;;;;;;18.09;73.17;95187.78;5098816;28;20196;-72
2022/06/27 02:43:44;;;;;;;10.18;9.27;;;;;;;18.06;73.16;95187.78;5097893;28;20199;-72
2022/06/27 02:46:11;;;;;;;11.10;10.00;;;;;;;18.00;73.06;95187.34;5098940;28;20188;-72
2022/06/27 02:48:40;;;;;;;11.27;10.13;;;;;;;17.97;73.13;95190.94;5098619;28;20200;-72
2022/06/27 02:51:10;;;;;;;10.73;9.57;;;;;;;17.99;73.41;95196.94;5097935;28;20200;-71
2022/06/27 02:53:44;;;;;;;12.13;9.48;;;;;;;17.99;73.45;95196.94;5098234;28;20541;-71
2022/06/27 02:56:11;;;;;;;10.70;8.65;;;;;;;17.95;73.17;95194.13;5098281;28;20246;-72
2022/06/27 02:58:43;;;;;;;9.82;8.40;;;;;;;17.93;73.33;95198.50;5097884;28;20207;-71
2022/06/27 03:01:10;;;;;;;9.85;8.90;;;;;;;17.91;72.93;95201.72;5098485;28;20285;-72
2022/06/27 03:03:42;;;;;;;12.20;8.45;;;;;;;17.89;72.96;95201.31;5098433;28;20608;-72
2022/06/27 03:06:08;;;;;;;9.40;8.50;;;;;;;17.89;73.33;95198.50;5098287;28;20210;-72
2022/06/27 03:08:40;;;;;;;9.20;8.30;;;;;;;17.89;73.59;95211.66;5097519;28;20188;-72
2022/06/27 03:11:07;;;;;;;9.48;8.57;;;;;;;17.89;73.48;95200.50;5098406;28;20184;-72
2022/06/27 03:13:34;;;;;;;9.43;8.48;;;;;;;17.90;73.66;95202.91;5096957;28;20221;-72
2022/06/27 03:16:01;;;;;;;11.70;9.20;;;;;;;17.94;73.96;95198.13;5097728;28;20214;-71
2022/06/27 03:18:28;;;;;;;12.55;9.50;;;;;;;17.97;74.08;95196.53;5098237;28;20203;-73
2022/06/27 03:20:57;;;;;;;14.40;11.30;;;;;;;17.97;73.64;95200.13;5097893;28;20188;-73
2022/06/27 03:23:23;;;;;;;14.13;11.88;;;;;;;17.97;73.68;95204.88;5098075;28;20195;-73
2022/06/27 03:25:50;;;;;;;15.18;12.82;;;;;;;17.96;73.64;95203.31;5098070;28;20205;-74
2022/06/27 03:28:17;;;;;;;13.07;11.70;;;;;;;17.95;74.21;95201.72;5097334;28;20227;-72
2022/06/27 03:30:44;;;;;;;13.15;9.52;;;;;;;17.96;74.51;95206.88;5097178;28;20204;-72
2022/06/27 03:33:11;;;;;;;10.93;9.90;;;;;;;17.96;74.36;95204.09;5097103;28;20213;-72
2022/06/27 03:35:38;;;;;;;9.63;8.68;;;;;;;17.96;74.33;95195.72;5096972;28;20201;-72
2022/06/27 03:38:06;;;;;;;9.10;7.97;;;;;;;17.97;74.46;95204.88;5095778;28;20208;-71
2022/06/27 03:40:33;;;;;;;8.90;8.10;;;;;;;17.97;74.38;95204.88;5097493;28;20211;-72
2022/06/27 03:42:59;;;;;;;9.02;8.23;;;;;;;17.98;74.41;95212.09;5097773;28;20184;-71
2022/06/27 03:45:26;;;;;;;8.15;7.38;;;;;;;17.98;74.59;95214.88;5096740;28;20201;-72
2022/06/27 03:47:55;;;;;;;7.18;6.47;;;;;;;17.99;74.55;95208.09;5096775;28;20291;-72
2022/06/27 03:50:22;;;;;;;7.60;6.93;;;;;;;18.01;74.43;95211.28;5096447;28;20270;-72
2022/06/27 03:52:49;;;;;;;10.95;7.00;;;;;;;18.02;74.61;95212.88;5096818;28;20212;-71
2022/06/27 03:55:18;;;;;;;8.02;6.85;;;;;;;18.02;74.53;95210.09;5097167;28;20507;-71
2022/06/27 03:57:49;;;;;;;6.97;6.32;;;;;;;17.99;74.51;95210.88;5097166;28;20490;-72
2022/06/27 04:00:18;;;;;;;6.97;5.88;;;;;;;17.98;74.80;95218.47;5096969;28;20189;-72
2022/06/27 04:02:44;;;;;;;7.18;6.13;;;;;;;18.01;74.82;95220.47;5096518;28;20200;-71
2022/06/27 04:05:12;;;;;;;7.30;6.55;;;;;;;18.01;74.86;95216.84;5097397;28;20196;-71
2022/06/27 04:07:39;;;;;;;6.35;5.60;;;;;;;17.98;75.08;95212.09;5096980;28;20200;-72
2022/06/27 04:10:07;;;;;;;6.20;5.70;;;;;;;17.95;75.22;95205.31;5096555;28;20241;-73
2022/06/27 04:12:36;;;;;;;6.07;5.20;;;;;;;17.95;75.15;95210.88;5097723;28;20203;-70
2022/06/27 04:15:04;;;;;;;5.25;4.75;;;;;;;17.96;74.94;95211.69;5096927;28;20207;-71
2022/06/27 04:17:31;;;;;;;6.00;4.53;;;;;;;17.97;74.86;95216.88;5096859;28;20192;-72
2022/06/27 04:19:58;;;;;;;4.95;4.45;;;;;;;17.99;74.96;95222.06;5096781;28;20203;-72
2022/06/27 04:22:25;;;;;;;5.38;4.82;;;;;;;18.00;74.92;95212.47;5096612;28;20270;-72
2022/06/27 04:24:52;;;;;;;5.65;4.78;;;;;;;18.00;75.42;95218.84;5097053;28;20188;-73
2022/06/27 04:27:20;;;;;;;5.40;4.90;;;;;;;18.00;75.39;95215.25;5097230;28;20243;-73
2022/06/27 04:29:49;;;;;;;6.72;5.72;;;;;;;18.02;75.63;95210.88;5096440;28;20249;-73
2022/06/27 04:32:16;;;;;;;6.22;5.63;;;;;;;18.01;75.81;95214.06;5096123;28;20196;-73
2022/06/27 04:34:43;;;;;;;6.70;6.13;;;;;;;18.00;75.45;95210.47;5096229;28;20212;-73
2022/06/27 04:37:10;;;;;;;6.85;6.25;;;;;;;18.02;75.72;95216.47;5096061;28;20189;-73
2022/06/27 04:39:37;;;;;;;7.72;6.13;;;;;;;18.01;75.99;95214.88;5096413;28;20502;-73
2022/06/27 04:42:06;;;;;;;6.78;6.13;;;;;;;18.05;75.93;95212.09;5096741;28;20199;-73
2022/06/27 04:44:34;;;;;;;6.80;6.13;;;;;;;18.07;75.66;95211.69;5096278;28;20203;-72
2022/06/27 04:47:07;;;;;;;6.03;5.43;;;;;;;18.10;76.05;95214.47;5095736;28;20600;-72
2022/06/27 04:49:34;;;;;;;6.93;6.28;;;;;;;18.12;76.11;95217.69;5095388;28;20249;-72
2022/06/27 04:52:01;;;;;;;7.60;5.97;;;;;;;18.13;75.83;95219.28;5096125;28;20249;-72
2022/06/27 04:54:28;;;;;;;6.93;6.40;;;;;;;18.15;75.98;95214.06;5095902;28;20632;-73
2022/06/27 04:56:55;;;;;;;7.50;6.32;;;;;;;18.20;75.71;95212.91;5095803;28;20201;-73
2022/06/27 04:59:23;;;;;;;7.03;6.30;;;;;;;18.20;76.08;95216.47;5095371;28;20193;-72
2022/06/27 05:01:50;;;;;;;8.05;6.43;;;;;;;18.21;76.27;95211.69;5095618;28;20583;-72
2022/06/27 05:04:18;;;;;;;7.70;6.50;;;;;;;18.22;76.35;95208.50;5096391;28;20200;-72
2022/06/27 05:06:45;;;;;;;8.75;6.65;;;;;;;18.24;76.37;95211.69;5095702;28;20196;-72
2022/06/27 05:09:12;;;;;;;6.78;6.15;;;;;;;18.26;76.35;95220.47;5096550;28;20184;-72
2022/06/27 05:11:39;;;;;;;7.70;6.65;;;;;;;18.28;76.27;95226.44;5095644;28;20201;-72
2022/06/27 05:14:06;;;;;;;7.57;6.88;;;;;;;18.30;76.09;95234.44;5095640;28;20220;-72
2022/06/27 05:16:33;;;;;;;8.25;7.35;;;;;;;18.31;76.02;95226.84;5095157;28;20200;-72
2022/06/27 05:19:00;;;;;;;7.70;7.00;;;;;;;18.33;76.10;95227.25;5095707;28;20204;-72
2022/06/27 05:21:28;;;;;;;7.72;6.70;;;;;;;18.36;76.24;95232.03;5095083;28;20196;-72
2022/06/27 05:23:55;;;;;;;7.40;6.70;;;;;;;18.39;76.15;95225.66;5095609;28;20204;-72
2022/06/27 05:26:22;;;;;;;8.32;7.15;;;;;;;18.39;76.30;95228.44;5095527;28;20302;-72
2022/06/27 05:28:49;;;;;;;8.07;7.32;;;;;;;18.44;75.90;95226.03;5094649;28;20228;-73
2022/06/27 05:31:16;;;;;;;7.35;6.75;;;;;;;18.46;75.70;95222.84;5094830;28;20203;-72
2022/06/27 05:33:43;;;;;;;6.95;6.22;;;;;;;18.51;75.79;95233.59;5094853;28;20216;-72
2022/06/27 05:36:10;;;;;;;7.30;6.45;;;;;;;18.51;75.74;95234.41;5095337;28;20208;-72
2022/06/27 05:38:39;;;;;;;6.50;6.00;;;;;;;18.53;75.54;95237.59;5095500;28;20589;-72
2022/06/27 05:41:06;;;;;;;7.00;6.40;;;;;;;18.53;75.59;95246.00;5095113;28;20196;-72
2022/06/27 05:43:33;;;;;;;7.13;6.53;;;;;;;18.53;75.39;95237.59;5094613;28;20208;-72
2022/06/27 05:46:00;;;;;;;7.88;7.18;;;;;;;18.53;75.81;95246.00;5094952;28;20204;-72
2022/06/27 05:48:27;;;;;;;7.80;7.03;;;;;;;18.52;75.83;95236.03;5094755;28;20211;-73
2022/06/27 05:50:54;;;;;;;8.02;7.32;;;;;;;18.55;75.92;95234.41;5094909;28;20292;-73
2022/06/27 05:53:22;;;;;;;7.57;6.72;;;;;;;18.60;76.04;95247.97;5094440;28;20596;-73
2022/06/27 05:55:50;;;;;;;7.95;7.25;;;;;;;18.64;75.94;95239.59;5095087;28;20193;-73
2022/06/27 05:58:18;;;;;;;8.50;6.70;;;;;;;18.64;76.23;95240.38;5094953;28;20200;-73
2022/06/27 06:00:45;;;;;;;8.50;7.80;;;;;;;18.67;75.99;95238.81;5094155;28;20196;-73
2022/06/27 06:03:12;;;;;;;8.00;7.30;;;;;;;18.67;75.67;95250.78;5094736;28;20230;-73
2022/06/27 06:05:40;;;;;;;7.50;6.90;;;;;;;18.68;75.69;95243.97;5094391;28;20192;-72
2022/06/27 06:08:07;;;;;;;9.00;7.47;;;;;;;18.71;76.00;95245.22;5094956;28;20200;-73
2022/06/27 06:10:34;;;;;;;8.60;7.85;;;;;;;18.74;75.88;95239.63;5094905;28;20200;-72
2022/06/27 06:13:03;;;;;;;8.82;7.93;;;;;;;18.77;76.17;95238.00;5095633;28;20192;-72
2022/06/27 06:15:31;;;;;;;8.43;7.65;;;;;;;18.80;75.96;95242.78;5094368;28;20201;-72
2022/06/27 06:18:01;;;;;;;9.13;8.23;;;;;;;18.82;75.44;95242.41;5095257;28;20189;-72
2022/06/27 06:20:28;;;;;;;8.55;7.85;;;;;;;18.85;75.14;95242.38;5094900;28;20235;-72
2022/06/27 06:22:55;;;;;;;9.95;8.10;;;;;;;18.88;75.00;95247.19;5095028;28;20210;-72
2022/06/27 06:25:23;;;;;;;9.13;8.20;;;;;;;18.92;75.38;95247.97;5094410;28;20211;-72
2022/06/27 06:27:50;;;;;;;8.00;7.30;;;;;;;18.95;75.14;95249.13;5094330;28;20664;-72
2022/06/27 06:30:19;;;;;;;9.10;8.00;;;;;;;18.97;75.03;95247.53;5095049;28;20193;-72
2022/06/27 06:32:46;;;;;;;8.65;7.85;;;;;;;19.02;74.86;95243.53;5094336;28;20196;-72
2022/06/27 06:35:13;;;;;;;8.07;7.40;;;;;;;19.08;74.80;95241.94;5094292;28;20266;-72
2022/06/27 06:37:41;;;;;;;8.85;7.38;;;;;;;19.13;74.63;95247.09;5094287;28;20295;-72
2022/06/27 06:40:10;;;;;;;8.82;7.93;;;;;;;19.19;75.01;95245.47;5094470;28;20192;-72
2022/06/27 06:42:36;;;;;;;7.65;7.05;;;;;;;19.26;74.51;95243.88;5094854;28;20204;-72
2022/06/27 06:45:04;;;;;;;9.40;8.48;;;;;;;19.32;75.53;95248.66;5095126;28;20188;-72
2022/06/27 06:47:33;;;;;;;9.55;8.73;;;;;;;19.41;74.86;95245.41;5094573;28;20196;-72
2022/06/27 06:50:00;;;;;;;9.30;8.40;;;;;;;19.48;74.67;95254.56;5094544;28;20205;-72
2022/06/27 06:52:30;;;;;;;8.38;7.47;;;;;;;19.53;74.05;95256.13;5094519;28;20200;-72
2022/06/27 06:54:57;;;;;;;8.90;7.63;;;;;;;19.57;73.59;95254.16;5095445;28;20227;-72
2022/06/27 06:57:24;;;;;;;7.88;7.18;;;;;;;19.65;74.35;95257.72;5093976;28;20189;-72
2022/06/27 06:59:50;;;;;;;7.57;6.85;;;;;;;19.73;73.76;95253.69;5095014;28;20192;-74
2022/06/27 07:02:17;;;;;;;7.97;7.28;;;;;;;19.79;73.15;95260.47;5094235;28;20205;-74
2022/06/27 07:04:47;;;;;;;7.97;6.80;;;;;;;19.85;72.92;95266.41;5094493;28;20204;-74
2022/06/27 07:07:14;;;;;;;8.73;6.78;;;;;;;19.89;72.94;95267.19;5094045;28;20272;-73
2022/06/27 07:09:40;;;;;;;7.47;6.78;;;;;;;19.90;72.46;95268.78;5094365;28;20193;-73
2022/06/27 07:12:08;;;;;;;7.63;6.93;;;;;;;19.91;72.46;95259.19;5097277;28;20204;-73
2022/06/27 07:14:35;;;;;;;7.57;6.57;;;;;;;19.93;72.31;95267.94;5097624;28;20227;-73
2022/06/27 07:17:02;;;;;;;7.22;6.53;;;;;;;19.96;71.98;95273.53;5098202;28;20204;-73
2022/06/27 07:19:29;;;;;;;6.72;6.22;;;;;;;19.99;71.00;95277.53;5097398;28;20203;-73
2022/06/27 07:21:57;;;;;;;7.60;6.88;;;;;;;20.04;70.85;95271.47;5097918;28;20249;-73
2022/06/27 07:24:24;;;;;;;11.05;9.98;;;;;;;20.08;69.79;95271.47;5097452;28;20192;-73
2022/06/27 07:26:51;;;;;;;9.88;9.07;;;;;;;20.09;69.64;95271.06;5097550;28;20192;-73
2022/06/27 07:29:18;;;;;;;8.23;7.57;;;;;;;20.13;69.86;95271.03;5057081;28;20200;-73
2022/06/27 07:31:44;;;;;;;8.18;7.53;;;;;;;20.14;69.59;95267.03;5057252;28;20209;-73
2022/06/27 07:34:12;;;;;;;8.32;7.53;;;;;;;20.18;68.49;95267.81;5057672;28;20213;-74
2022/06/27 07:36:39;;;;;;;7.80;6.78;;;;;;;20.22;68.86;95268.56;5057207;28;20238;-74
2022/06/27 07:39:07;;;;;;;6.88;6.28;;;;;;;20.25;68.49;95269.75;5057019;28;20206;-74
2022/06/27 07:41:34;;;;;;;6.50;5.85;;;;;;;20.27;67.44;95272.97;5056930;28;20208;-73
2022/06/27 07:44:03;;;;;;;7.07;5.38;;;;;;;20.28;67.37;95266.94;5057437;28;20193;-73
2022/06/27 07:46:31;;;;;;;6.70;6.20;;;;;;;20.31;67.57;95260.50;5057002;28;20232;-73
2022/06/27 07:48:58;;;;;;;8.40;6.40;;;;;;;20.36;66.95;95257.25;5057005;28;20202;-73
2022/06/27 07:51:25;;;;;;;7.38;5.53;;;;;;;20.41;65.46;95258.84;5056852;28;20204;-73
2022/06/27 07:53:52;;;;;;;6.05;5.53;;;;;;;20.45;65.63;95262.41;5056883;28;20197;-73
2022/06/27 07:56:23;;;;;;;5.82;5.32;;;;;;;20.50;64.99;95255.59;5057248;28;20193;-73
2022/06/27 07:58:50;;;;;;;5.50;5.10;;;;;;;20.52;64.71;95259.59;5056759;28;20204;-73
2022/06/27 08:01:19;;;;;;;5.45;4.95;;;;;;;20.55;63.22;95252.34;5056782;28;20225;-73
2022/06/27 08:03:48;;;;;;;8.43;5.45;;;;;;;20.57;64.06;95256.34;5057129;28;20197;-73
2022/06/27 08:06:17;;;;;;;5.85;5.25;;;;;;;20.66;63.90;95262.28;5056822;28;20279;-74
2022/06/27 08:08:45;;;;;;;6.25;5.75;;;;;;;20.70;64.17;95253.84;5056345;28;20650;-73
2022/06/27 08:11:14;;;;;;;6.38;5.85;;;;;;;20.78;65.75;95263.75;5056265;28;20194;-73
2022/06/27 08:13:44;;;;;;;5.43;4.93;;;;;;;20.82;65.09;95250.50;5056849;28;20201;-73
2022/06/27 08:16:14;;;;;;;6.03;5.15;;;;;;;20.96;64.34;95254.41;5056523;28;20197;-73
2022/06/27 08:18:42;;;;;;;5.45;4.70;;;;;;;21.15;62.55;95251.78;5056225;28;20217;-73
2022/06/27 08:21:10;;;;;;;4.50;4.20;;;;;;;21.19;63.57;95256.53;5056352;28;20265;-74
2022/06/27 08:23:38;;;;;;;5.78;5.28;;;;;;;21.34;63.05;95252.41;5055378;28;20200;-73
2022/06/27 08:26:07;;;;;;;4.93;4.57;;;;;;;21.41;61.25;95257.13;5056369;28;20267;-73
2022/06/27 08:28:35;;;;;;;5.53;5.03;;;;;;;21.48;60.82;95257.03;5084613;28;20273;-73
2022/06/27 08:31:03;;;;;;;7.53;5.47;;;;;;;21.50;61.42;95252.63;5096412;28;20283;-73
2022/06/27 08:33:31;;;;;;;5.80;5.05;;;;;;;21.49;60.93;95253.03;5095973;28;20646;-73
2022/06/27 08:35:58;;;;;;;5.80;5.30;;;;;;;21.49;62.31;95253.81;5096675;28;20223;-73
2022/06/27 08:38:25;;;;;;;5.55;5.07;;;;;;;21.58;63.19;95256.91;5096326;28;20192;-73
2022/06/27 08:40:54;;;;;;;5.13;4.63;;;;;;;21.70;61.86;95252.75;5095892;28;20188;-73
2022/06/27 08:43:21;;;;;;;5.80;5.30;;;;;;;21.80;63.00;95253.84;5096070;28;20203;-73
2022/06/27 08:45:50;;;;;;;6.38;5.88;;;;;;;21.94;62.22;95250.03;5096451;28;20191;-73
2022/06/27 08:48:19;;;;;;;5.78;5.38;;;;;;;22.09;62.37;95257.03;5096230;28;20303;-73
2022/06/27 08:50:48;;;;;;;6.53;5.82;;;;;;;22.10;61.86;95255.81;5095682;28;20200;-73
2022/06/27 08:53:15;;;;;;;5.40;5.00;;;;;;;;;;5095745;28;20287;-73
2022/06/27 08:55:45;;;;;;;5.47;5.07;;;;;;;22.01;60.16;95242.31;5095681;28;20219;-73
2022/06/27 08:58:12;;;;;;;4.97;4.57;;;;;;;22.07;61.46;95248.22;5096007;28;20201;-73
2022/06/27 09:00:40;;;;;;;6.50;4.80;;;;;;;22.09;60.71;95246.59;5096031;28;20227;-73
2022/06/27 09:03:08;;;;;;;5.25;4.85;;;;;;;22.18;60.49;95256.53;5095558;28;20200;-73
2022/06/27 09:05:37;;;;;;;6.28;5.20;;;;;;;22.38;60.14;95248.22;5095361;28;20196;-73
2022/06/27 09:08:06;;;;;;;5.97;5.57;;;;;;;22.44;58.30;95238.88;5095898;28;20640;-74
2022/06/27 09:10:34;;;;;;;5.53;4.95;;;;;;;22.46;59.88;95238.44;5095563;28;20257;-73
2022/06/27 09:13:03;;;;;;;7.13;5.00;;;;;;;22.55;60.36;95247.94;5095719;28;20192;-73
2022/06/27 09:15:48;;;;;;;5.28;4.78;;;;;;;22.75;60.48;95241.59;5095737;28;20247;-73
2022/06/27 09:18:16;;;;;;;4.47;4.18;;;;;;;22.91;56.19;95247.31;5095557;28;20196;-73
2022/06/27 09:20:51;;;;;;;4.20;3.83;;;;;;;22.95;56.88;95248.09;5095196;28;20644;-73
2022/06/27 09:23:42;;;;;;;4.60;4.15;;;;;;;23.00;56.33;95241.16;5095611;28;20199;-73
2022/06/27 09:26:12;;;;;;;4.30;4.00;;;;;;;22.99;54.33;95240.38;5095338;28;20303;-73
2022/06/27 09:28:44;;;;;;;4.72;4.30;;;;;;;23.06;54.84;95245.88;5095375;28;20236;-73
2022/06/27 09:31:15;;;;;;;4.43;4.13;;;;;;;23.18;56.10;95238.81;5095099;28;20638;-73
2022/06/27 09:33:42;;;;;;;4.78;4.38;;;;;;;23.32;54.61;95239.78;5095463;28;20208;-73
2022/06/27 09:36:13;;;;;;;5.15;4.70;;;;;;;23.43;54.37;95240.34;5094498;28;20216;-73
2022/06/27 09:38:48;;;;;;;5.45;4.95;;;;;;;23.48;55.45;95239.84;5095322;28;20219;-73
2022/06/27 09:41:16;;;;;;;4.75;4.45;;;;;;;23.56;55.25;95230.03;5094648;28;20203;-73
2022/06/27 09:43:46;;;;;;;5.57;5.07;;;;;;;23.70;57.03;95223.34;5094992;28;20228;-73
2022/06/27 09:46:15;;;;;;;5.38;4.97;;;;;;;23.82;54.41;95230.31;5095581;28;20200;-73
2022/06/27 09:48:43;;;;;;;5.60;5.05;;;;;;;23.87;56.58;95227.78;5094785;28;20215;-73
2022/06/27 09:51:14;;;;;;;5.20;4.80;;;;;;;23.89;53.15;95233.75;5094722;28;20204;-73
2022/06/27 09:54:00;;;;;;;5.18;4.78;;;;;;;23.70;53.44;95229.75;5095375;28;20203;-73
2022/06/27 09:56:29;;;;;;;5.07;4.65;;;;;;;23.77;55.67;95234.44;5094943;28;20303;-73
2022/06/27 09:58:56;;;;;;;5.25;4.85;;;;;;;23.70;53.22;95231.78;5095004;28;20242;-73
2022/06/27 10:01:23;;;;;;;5.03;4.63;;;;;;;23.68;53.45;95225.81;5095021;28;20206;-73
2022/06/27 10:03:50;;;;;;;4.78;4.43;;;;;;;23.72;53.28;95216.03;5094602;28;20283;-73
2022/06/27 10:06:19;;;;;;;4.70;4.30;;;;;;;23.80;55.10;95222.31;5095082;28;20200;-73
2022/06/27 10:08:48;;;;;;;4.97;4.68;;;;;;;23.87;54.77;95213.72;5094679;28;20227;-73
2022/06/27 10:11:14;;;;;;;5.47;4.97;;;;;;;23.97;55.54;95209.88;5094770;28;20208;-73
2022/06/27 10:13:43;;;;;;;6.03;5.60;;;;;;;24.10;55.71;95215.59;5094392;28;20222;-73
2022/06/27 10:16:13;;;;;;;5.63;5.15;;;;;;;24.22;52.25;95211.28;5094485;28;20244;-73
2022/06/27 10:19:03;;;;;;;5.00;4.60;;;;;;;24.30;53.10;95211.94;5094587;28;20242;-73
2022/06/27 10:21:33;;;;;;;4.88;4.47;;;;;;;24.34;51.58;95212.66;5094482;28;20257;-73
2022/06/27 10:24:29;;;;;;;4.85;4.55;;;;;;;24.37;54.72;95215.38;5094852;28;20200;-73
2022/06/27 10:26:56;;;;;;;5.57;5.07;;;;;;;24.41;52.56;95204.06;5094181;28;20227;-73
2022/06/27 10:29:46;;;;;;;5.25;4.85;;;;;;;24.46;53.37;95209.16;5094561;28;20200;-73
2022/06/27 10:32:41;;;;;;;5.45;5.05;;;;;;;24.52;53.71;95198.94;5095041;28;20219;-73
2022/06/27 10:35:17;;;;;;;5.18;4.78;;;;;;;24.64;54.54;95192.56;5094298;28;20230;-73
2022/06/27 10:37:46;;;;;;;5.35;4.95;;;;;;;24.73;53.32;95200.44;5094531;28;20204;-73
2022/06/27 10:40:53;;;;;;;5.65;5.25;;;;;;;24.74;53.38;95194.34;5094173;28;20216;-73
2022/06/27 10:43:43;;;;;;;5.72;5.20;;;;;;;24.77;54.68;95189.06;5093877;28;20196;-73
2022/06/27 10:46:53;;;;;;;5.50;5.10;;;;;;;24.89;51.32;95188.31;5094891;28;20609;-73
2022/06/27 10:49:21;;;;;;;6.63;5.47;;;;;;;24.84;52.20;95192.47;5098297;28;20208;-73
2022/06/27 10:51:49;;;;;;;6.28;5.78;;;;;;;24.60;52.11;95183.41;5098375;28;20185;-73
2022/06/27 10:54:17;;;;;;;5.55;5.15;;;;;;;24.42;52.10;95189.50;5098234;28;20204;-73
2022/06/27 10:56:46;;;;;;;5.70;5.30;;;;;;;24.26;51.50;95195.91;5098284;28;20216;-73
2022/06/27 10:59:59;;;;;;;6.13;5.63;;;;;;;24.23;52.73;95196.78;5097912;28;20204;-73
2022/06/27 11:02:29;;;;;;;5.47;5.07;;;;;;;24.24;53.40;95197.56;5098113;28;20232;-73
2022/06/27 11:04:57;;;;;;;5.53;5.03;;;;;;;24.39;52.29;95190.38;5097909;28;20196;-73
2022/06/27 11:07:25;;;;;;;6.70;5.30;;;;;;;24.55;53.73;95186.78;5097457;28;20189;-73
2022/06/27 11:09:53;;;;;;;6.07;5.57;;;;;;;24.74;53.86;95187.91;5097659;28;20197;-73
2022/06/27 11:12:23;;;;;;;5.50;5.10;;;;;;;24.90;55.08;95181.44;5097945;28;20291;-73
2022/06/27 11:14:50;;;;;;;5.93;5.25;;;;;;;25.10;52.34;95181.31;5097440;28;20254;-73
2022/06/27 11:17:38;;;;;;;5.40;5.00;;;;;;;25.12;51.84;95173.22;5097840;28;20203;-73
2022/06/27 11:20:17;;;;;;;5.95;5.40;;;;;;;25.16;51.46;95183.19;5097755;28;20223;-73
2022/06/27 11:22:45;;;;;;;4.95;4.55;;;;;;;25.04;50.24;95174.63;5097892;28;20548;-73
2022/06/27 11:25:13;;;;;;;5.32;4.93;;;;;;;24.82;49.76;95180.84;5097332;28;20287;-73
2022/06/27 11:27:55;;;;;;;5.15;4.65;;;;;;;24.66;50.51;95173.19;5096977;28;20228;-73
2022/06/27 11:33:15;;;;;;;4.80;4.50;;;;;;;25.05;52.12;95179.81;5097471;28;20196;-73
2022/06/27 11:35:42;;;;;;;4.85;4.40;;;;;;;25.26;50.61;95170.00;5097347;28;20227;-73
2022/06/27 11:38:09;;;;;;;4.65;4.25;;;;;;;25.37;51.71;95172.50;5097939;28;20188;-73
2022/06/27 11:40:38;;;;;;;7.93;4.97;;;;;;;25.43;50.41;95167.91;5096981;28;20199;-73
2022/06/27 11:43:05;;;;;;;4.65;4.35;;;;;;;25.42;50.51;95174.81;5097062;28;20203;-73